Time;durP1;ratioP1;P1;durP2;ratioP2;P2;SDS_P1;SDS_P2;PMS_P1;PMS_P2;Temp;Humidity;BMP_temperature;BMP_pressure;BME280_temperature;BME280_humidity;BME280_pressure;Samples;Min_cycle;Max_cycle;Signal;HPM_P1;HPM_P2
2023/05/15 17:14:59;;;;;;;5.03;3.90;;;14.10;99.90;;;;;;5079778;27;1475037;-89
2023/05/15 17:17:25;;;;;;;5.13;3.70;;;12.70;99.90;;;;;;5107501;28;20131;-90
2023/05/15 17:19:51;;;;;;;3.53;3.10;;;12.60;99.90;;;;;;5073118;28;20411;-89
2023/05/15 17:22:18;;;;;;;5.35;3.85;;;12.50;99.90;;;;;;5107705;28;20039;-91
2023/05/15 17:24:44;;;;;;;4.50;3.95;;;12.50;99.90;;;;;;5088527;28;20248;-88
2023/05/15 17:27:11;;;;;;;5.65;4.03;;;12.40;99.90;;;;;;5073964;28;20408;-89
2023/05/15 17:29:36;;;;;;;7.80;4.30;;;12.40;99.90;;;;;;5055506;28;20089;-88
2023/05/15 17:32:03;;;;;;;5.60;3.83;;;12.30;99.90;;;;;;5090622;28;20381;-92
2023/05/15 17:34:31;;;;;;;5.03;4.13;;;12.30;99.90;;;;;;5094856;28;20059;-91
2023/05/15 17:36:57;;;;;;;4.90;4.10;;;12.20;99.90;;;;;;5074057;28;20132;-89
2023/05/15 17:39:23;;;;;;;9.20;4.68;;;12.10;99.90;;;;;;5074397;28;20040;-90
2023/05/15 17:41:49;;;;;;;4.82;4.18;;;12.10;99.90;;;;;;5072654;28;20047;-90
2023/05/15 17:44:15;;;;;;;4.28;3.78;;;12.00;99.90;;;;;;5040459;28;20093;-89
2023/05/15 17:46:42;;;;;;;4.85;3.40;;;11.90;99.90;;;;;;5071016;28;20480;-88
2023/05/15 17:49:08;;;;;;;10.32;6.53;;;11.60;99.90;;;;;;5072134;28;20394;-89
2023/05/15 17:51:33;;;;;;;5.35;4.05;;;11.90;99.90;;;;;;5070812;28;20070;-89
2023/05/15 17:53:59;;;;;;;5.07;3.30;;;11.80;99.90;;;;;;5089111;28;20137;-91
2023/05/15 17:56:26;;;;;;;5.88;3.50;;;11.80;99.90;;;;;;5056366;28;20394;-91
2023/05/15 17:58:52;;;;;;;6.00;3.63;;;11.80;99.90;;;;;;5053773;28;20048;-88
2023/05/15 18:01:18;;;;;;;3.75;2.72;;;11.70;99.90;;;;;;5055919;28;20082;-92
2023/05/15 18:03:45;;;;;;;5.97;3.28;;;11.70;99.90;;;;;;5037417;28;20041;-91
2023/05/15 18:06:12;;;;;;;3.40;1.98;;;11.70;99.90;;;;;;5038467;28;20059;-90
2023/05/15 18:08:43;;;;;;;2.88;2.25;;;11.60;99.90;;;;;;5054535;28;20052;-89
2023/05/15 18:11:09;;;;;;;4.22;2.22;;;11.60;99.90;;;;;;5087697;28;20102;-90
2023/05/15 18:13:35;;;;;;;5.10;2.10;;;11.50;99.90;;;;;;5054771;28;20108;-89
2023/05/15 18:16:01;;;;;;;4.95;1.98;;;11.60;99.90;;;;;;5039745;28;20133;-90
2023/05/15 18:18:27;;;;;;;6.32;2.53;;;11.50;99.90;;;;;;5042037;28;20037;-90
2023/05/15 18:20:52;;;;;;;5.05;2.42;;;11.50;99.90;;;;;;5023528;28;20123;-91
2023/05/15 18:23:18;;;;;;;4.78;2.83;;;11.50;99.90;;;;;;5025083;28;20059;-90
2023/05/15 18:25:45;;;;;;;2.65;2.15;;;11.50;99.90;;;;;;5023602;28;20036;-90
2023/05/15 18:28:11;;;;;;;5.63;2.70;;;11.50;99.90;;;;;;5041401;28;20054;-90
2023/05/15 18:30:37;;;;;;;3.75;1.77;;;11.40;99.90;;;;;;5024717;28;20132;-90
2023/05/15 18:33:03;;;;;;;3.95;1.85;;;11.40;99.90;;;;;;5039110;28;20076;-89
2023/05/15 18:35:29;;;;;;;5.45;2.28;;;11.70;99.90;;;;;;5024228;28;20040;-90
2023/05/15 18:37:54;;;;;;;3.20;1.88;;;11.30;99.90;;;;;;5072779;28;20036;-90
2023/05/15 18:40:20;;;;;;;5.63;1.25;;;11.30;99.90;;;;;;5074462;28;20474;-89
2023/05/15 18:42:46;;;;;;;2.28;1.42;;;11.30;99.90;;;;;;5056385;28;20049;-90
2023/05/15 18:45:12;;;;;;;5.90;1.55;;;11.30;99.90;;;;;;5039250;28;20043;-89
2023/05/15 18:47:38;;;;;;;1.38;1.05;;;11.30;99.90;;;;;;5022558;28;20052;-88
2023/05/15 18:50:05;;;;;;;3.13;1.05;;;11.30;99.90;;;;;;5021989;28;20036;-90
2023/05/15 18:52:31;;;;;;;8.63;2.20;;;11.30;99.90;;;;;;5055956;28;20044;-89
2023/05/15 18:54:57;;;;;;;0.70;0.57;;;11.30;99.90;;;;;;5054361;28;20047;-89
2023/05/15 18:57:23;;;;;;;1.98;0.60;;;11.30;99.90;;;;;;5039767;28;20589;-90
2023/05/15 18:59:48;;;;;;;3.03;0.70;;;11.20;99.90;;;;;;5022254;28;20037;-90
2023/05/15 19:02:14;;;;;;;3.92;1.10;;;9.90;99.90;;;;;;5041423;28;20044;-90
2023/05/15 19:04:40;;;;;;;3.80;0.80;;;9.80;99.90;;;;;;5024788;28;20068;-91
2023/05/15 19:07:06;;;;;;;1.05;0.70;;;12.00;99.90;;;;;;5073760;28;20127;-92
2023/05/15 19:09:32;;;;;;;3.28;0.80;;;11.00;99.90;;;;;;5074641;28;20059;-91
2023/05/15 19:12:01;;;;;;;1.17;0.70;;;11.00;99.90;;;;;;5039595;28;20045;-91
2023/05/15 19:14:27;;;;;;;2.78;0.80;;;11.00;99.90;;;;;;5041289;28;20052;-91
2023/05/15 19:16:53;;;;;;;2.10;0.90;;;10.90;99.90;;;;;;5056287;28;20049;-90
2023/05/15 19:19:19;;;;;;;3.80;0.60;;;10.90;99.90;;;;;;5074977;28;20047;-91
2023/05/15 19:21:46;;;;;;;1.17;0.88;;;10.90;99.90;;;;;;5073863;28;20090;-90
2023/05/15 19:24:12;;;;;;;2.63;0.60;;;10.90;99.90;;;;;;5023247;28;20066;-92
2023/05/15 19:26:38;;;;;;;1.48;0.60;;;10.90;99.90;;;;;;5039591;28;20557;-91
2023/05/15 19:29:03;;;;;;;0.50;0.40;;;10.90;99.90;;;;;;5038716;28;20042;-91
2023/05/15 19:31:29;;;;;;;4.07;0.75;;;10.90;99.90;;;;;;5076801;28;20067;-90
2023/05/15 19:33:55;;;;;;;2.90;0.80;;;10.90;99.90;;;;;;5058411;28;20072;-91
2023/05/15 19:36:21;;;;;;;5.60;0.85;;;10.80;99.90;;;;;;5024917;28;20576;-90
2023/05/15 19:38:47;;;;;;;8.30;0.98;;;10.80;99.90;;;;;;5040036;28;20044;-91
2023/05/15 19:41:13;;;;;;;5.90;0.95;;;10.80;99.90;;;;;;5055019;28;20123;-90
2023/05/15 19:43:39;;;;;;;8.73;1.48;;;10.80;99.90;;;;;;5055168;28;20044;-92
2023/05/15 19:46:05;;;;;;;10.68;0.95;;;10.70;99.90;;;;;;5071380;28;20048;-91
2023/05/15 19:48:31;;;;;;;12.45;1.60;;;10.70;99.90;;;;;;5071382;28;20040;-91
2023/05/15 19:50:57;;;;;;;5.30;1.00;;;10.70;99.90;;;;;;5052736;28;20041;-91
2023/05/15 19:53:23;;;;;;;7.55;1.05;;;10.70;99.90;;;;;;5053805;28;20084;-92
2023/05/15 19:55:49;;;;;;;6.05;1.77;;;10.70;99.90;;;;;;5069856;28;20036;-91
2023/05/15 19:58:15;;;;;;;3.28;0.90;;;10.70;99.90;;;;;;5036399;28;20041;-89
2023/05/15 20:00:42;;;;;;;3.50;1.05;;;10.70;99.90;;;;;;5053797;28;20040;-89
2023/05/15 20:03:08;;;;;;;3.58;0.70;;;10.60;99.90;;;;;;5035765;28;20045;-91
2023/05/15 20:05:39;;;;;;;2.13;0.60;;;10.60;99.90;;;;;;5070327;28;20037;-91
2023/05/15 20:08:05;;;;;;;8.45;1.15;;;10.50;99.90;;;;;;5068281;28;20461;-88
2023/05/15 20:10:31;;;;;;;8.13;1.38;;;10.40;99.90;;;;;;5069519;28;20515;-89
2023/05/15 20:12:56;;;;;;;8.15;1.52;;;10.40;99.90;;;;;;5052758;28;20052;-92
2023/05/15 20:15:22;;;;;;;12.63;1.73;;;10.30;99.90;;;;;;5034758;28;20138;-89
2023/05/15 20:17:48;;;;;;;8.13;1.20;;;10.30;99.90;;;;;;5018556;28;20083;-88
2023/05/15 20:20:13;;;;;;;6.93;1.10;;;10.20;99.90;;;;;;5066159;28;20089;-87
2023/05/15 20:22:41;;;;;;;8.73;1.30;;;10.10;99.90;;;;;;5035098;28;20454;-90
2023/05/15 20:25:07;;;;;;;13.23;1.38;;;10.10;99.90;;;;;;5050165;28;20043;-89
2023/05/15 20:27:33;;;;;;;9.38;1.40;;;10.00;99.90;;;;;;5018708;28;20045;-88
2023/05/15 20:30:01;;;;;;;7.72;2.13;;;10.00;99.90;;;;;;5049843;28;20045;-88
2023/05/15 20:32:27;;;;;;;8.45;1.15;;;10.00;99.90;;;;;;5017989;28;20079;-89
2023/05/15 20:34:54;;;;;;;6.22;1.30;;;9.90;99.90;;;;;;5068150;28;20048;-88
2023/05/15 20:37:21;;;;;;;12.82;2.50;;;10.00;99.90;;;;;;5050173;28;20413;-89
2023/05/15 20:39:46;;;;;;;8.35;1.25;;;10.60;99.90;;;;;;5068635;28;20067;-89
2023/05/15 20:42:12;;;;;;;8.68;1.05;;;9.80;99.90;;;;;;5049703;28;20052;-87
2023/05/15 20:44:38;;;;;;;8.55;1.42;;;9.80;99.90;;;;;;5068476;28;20055;-91
2023/05/15 20:47:04;;;;;;;7.75;1.25;;;9.70;99.90;;;;;;5017778;28;20511;-88
2023/05/15 20:49:31;;;;;;;8.27;2.03;;;9.70;99.90;;;;;;5068585;28;20533;-89
2023/05/15 20:51:56;;;;;;;13.68;1.90;;;10.30;99.90;;;;;;5051202;28;20053;-89
2023/05/15 20:54:22;;;;;;;9.43;1.42;;;9.60;99.90;;;;;;5049639;28;20444;-88
2023/05/15 20:56:48;;;;;;;13.05;1.75;;;9.60;99.90;;;;;;5051116;28;20048;-89
2023/05/15 20:59:14;;;;;;;19.10;2.28;;;9.70;99.90;;;;;;5049864;28;20047;-89
2023/05/15 21:01:39;;;;;;;12.18;1.83;;;9.90;99.90;;;;;;5051853;28;20347;-90
2023/05/15 21:04:06;;;;;;;11.27;1.50;;;10.20;99.90;;;;;;5033396;28;20409;-89
2023/05/15 21:06:31;;;;;;;11.18;1.55;;;9.60;99.90;;;;;;5051129;28;20041;-88
2023/05/15 21:08:57;;;;;;;17.85;4.40;;;9.70;99.90;;;;;;5067598;28;20114;-89
2023/05/15 21:11:23;;;;;;;11.60;2.03;;;9.60;99.90;;;;;;5033626;28;20486;-88
2023/05/15 21:13:49;;;;;;;16.67;2.50;;;9.60;99.90;;;;;;5017922;28;20421;-88
2023/05/15 21:16:17;;;;;;;16.85;2.15;;;9.60;99.90;;;;;;5049425;28;20079;-87
2023/05/15 21:18:43;;;;;;;11.02;2.67;;;9.60;99.90;;;;;;5051181;28;20040;-89
2023/05/15 21:21:09;;;;;;;12.88;1.95;;;9.60;99.90;;;;;;5065700;28;20047;-88
2023/05/15 21:23:35;;;;;;;11.98;1.90;;;9.60;99.90;;;;;;5050277;28;20094;-88
2023/05/15 21:26:04;;;;;;;12.80;2.17;;;9.50;99.90;;;;;;5067129;28;20052;-88
2023/05/15 21:28:30;;;;;;;11.63;3.35;;;9.60;99.90;;;;;;5065783;28;20131;-89
2023/05/15 21:30:56;;;;;;;13.43;2.67;;;9.60;99.90;;;;;;5050589;28;20148;-86
2023/05/15 21:33:22;;;;;;;14.70;2.53;;;9.60;99.90;;;;;;5064966;28;20170;-82
2023/05/15 21:35:48;;;;;;;17.05;2.03;;;9.60;99.90;;;;;;5067329;28;20078;-85
2023/05/15 21:38:15;;;;;;;13.93;1.88;;;9.70;99.90;;;;;;5065322;28;20044;-83
2023/05/15 21:40:40;;;;;;;15.65;2.67;;;9.60;99.90;;;;;;5049996;28;20049;-90
2023/05/15 21:43:06;;;;;;;13.70;3.55;;;9.60;99.90;;;;;;5033190;28;20055;-84
2023/05/15 21:45:32;;;;;;;14.35;2.35;;;9.80;99.90;;;;;;5065211;28;20382;-84
2023/05/15 21:47:58;;;;;;;13.80;2.05;;;9.80;99.90;;;;;;5049707;28;20044;-84
2023/05/15 21:50:25;;;;;;;19.23;2.70;;;9.70;99.90;;;;;;5050520;28;20037;-84
2023/05/15 21:52:50;;;;;;;15.35;2.75;;;9.70;99.90;;;;;;5037108;28;20055;-84
2023/05/15 21:55:16;;;;;;;15.38;2.35;;;9.70;99.90;;;;;;5052130;28;20048;-84
2023/05/15 21:57:42;;;;;;;12.73;1.90;;;9.70;99.90;;;;;;5070429;28;20098;-84
2023/05/15 22:00:09;;;;;;;27.48;2.42;;;10.00;99.90;;;;;;5069322;28;20417;-84
2023/05/15 22:02:35;;;;;;;23.55;2.90;;;9.70;99.90;;;;;;5069157;28;20098;-83
2023/05/15 22:05:01;;;;;;;13.40;2.67;;;9.70;99.90;;;;;;5053288;28;20041;-84
2023/05/15 22:07:26;;;;;;;12.20;2.50;;;9.70;99.90;;;;;;5034989;28;20043;-84
2023/05/15 22:09:52;;;;;;;17.48;3.65;;;9.60;99.90;;;;;;5053478;28;20045;-83
2023/05/15 22:12:18;;;;;;;14.35;2.50;;;9.60;99.90;;;;;;5051591;28;20080;-84
2023/05/15 22:14:44;;;;;;;20.00;3.25;;;9.60;99.90;;;;;;5069747;28;20044;-84
2023/05/15 22:17:11;;;;;;;14.50;2.50;;;9.60;99.90;;;;;;5052110;28;20051;-83
2023/05/15 22:19:40;;;;;;;16.67;2.75;;;10.00;99.90;;;;;;5068870;28;20048;-83
2023/05/15 22:22:07;;;;;;;15.90;2.67;;;9.60;99.90;;;;;;5052962;28;20043;-83
2023/05/15 22:24:33;;;;;;;14.25;2.13;;;9.60;99.90;;;;;;5051248;28;20654;-83
2023/05/15 22:26:58;;;;;;;29.75;4.57;;;9.60;99.90;;;;;;5052932;28;20055;-83
2023/05/15 22:29:25;;;;;;;15.23;2.20;;;9.60;99.90;;;;;;5051270;28;20040;-83
2023/05/15 22:31:51;;;;;;;20.63;3.33;;;9.60;99.90;;;;;;5052892;28;20576;-83
2023/05/15 22:34:17;;;;;;;27.08;3.17;;;9.50;99.90;;;;;;5068289;28;20127;-83
2023/05/15 22:36:42;;;;;;;29.05;3.97;;;9.50;99.90;;;;;;5068652;28;20042;-84
2023/05/15 22:39:08;;;;;;;12.00;1.90;;;9.50;99.90;;;;;;5053155;28;20045;-83
2023/05/15 22:41:34;;;;;;;16.08;2.35;;;9.50;99.90;;;;;;5067573;28;20390;-83
2023/05/15 22:44:00;;;;;;;18.83;1.75;;;9.50;99.90;;;;;;5069255;28;20145;-83
2023/05/15 22:46:26;;;;;;;22.85;2.50;;;9.50;99.90;;;;;;5051445;28;20040;-83
2023/05/15 22:48:52;;;;;;;19.38;2.22;;;9.80;99.90;;;;;;5052877;28;20481;-84
2023/05/15 22:51:17;;;;;;;30.48;4.57;;;9.60;99.90;;;;;;5068520;28;20036;-83
2023/05/15 22:53:43;;;;;;;16.42;4.13;;;9.50;99.90;;;;;;5052133;28;20468;-83
2023/05/15 22:56:09;;;;;;;17.45;2.65;;;10.00;99.90;;;;;;5068938;28;20094;-83
2023/05/15 22:58:34;;;;;;;19.40;2.55;;;9.50;99.90;;;;;;5067635;28;20041;-84
2023/05/15 23:01:00;;;;;;;14.48;2.28;;;9.50;99.90;;;;;;5036011;28;20147;-83
2023/05/15 23:03:26;;;;;;;18.17;2.20;;;10.30;99.90;;;;;;5067449;28;20071;-83
2023/05/15 23:05:54;;;;;;;24.50;2.67;;;9.50;99.90;;;;;;5069806;28;20040;-83
2023/05/15 23:08:20;;;;;;;7.05;1.98;;;9.40;99.90;;;;;;5051621;28;20608;-83
2023/05/15 23:10:46;;;;;;;18.15;3.05;;;9.30;99.90;;;;;;5068572;28;20050;-83
2023/05/15 23:13:12;;;;;;;20.75;2.13;;;9.40;99.90;;;;;;5068790;28;20040;-83
2023/05/15 23:15:38;;;;;;;22.95;2.63;;;9.90;99.90;;;;;;5067249;28;20285;-83
2023/05/15 23:18:04;;;;;;;14.18;2.35;;;9.90;99.90;;;;;;5035779;28;20049;-83
2023/05/15 23:20:30;;;;;;;21.23;2.60;;;9.30;99.90;;;;;;5050323;28;20510;-83
2023/05/15 23:22:55;;;;;;;24.08;2.63;;;9.40;99.90;;;;;;5069133;28;20074;-83
2023/05/15 23:25:21;;;;;;;21.30;3.50;;;9.20;99.90;;;;;;5051346;28;20036;-83
2023/05/15 23:27:47;;;;;;;23.25;3.53;;;9.40;99.90;;;;;;5068531;28;20056;-83
2023/05/15 23:30:14;;;;;;;15.80;2.60;;;9.10;99.90;;;;;;5051520;28;20044;-83
2023/05/15 23:32:39;;;;;;;22.38;3.00;;;9.10;99.90;;;;;;5050534;28;20040;-83
2023/05/15 23:35:05;;;;;;;13.52;1.30;;;9.00;99.90;;;;;;5051979;28;20036;-83
2023/05/15 23:37:31;;;;;;;19.70;1.52;;;8.90;99.90;;;;;;5016685;28;20187;-82
2023/05/15 23:39:57;;;;;;;16.27;2.63;;;8.90;99.90;;;;;;5068617;28;20083;-83
2023/05/15 23:42:22;;;;;;;11.25;2.55;;;9.10;99.90;;;;;;5050216;28;20205;-83
2023/05/15 23:44:48;;;;;;;17.90;2.55;;;9.40;99.90;;;;;;5035093;28;20045;-82
2023/05/15 23:47:15;;;;;;;22.70;1.90;;;8.80;99.90;;;;;;5051004;28;20511;-82
2023/05/15 23:49:41;;;;;;;24.08;2.60;;;8.80;99.90;;;;;;5067203;28;20162;-82
2023/05/15 23:52:06;;;;;;;18.73;2.40;;;9.90;99.90;;;;;;5051510;28;20135;-82
2023/05/15 23:54:32;;;;;;;12.60;2.08;;;8.80;99.90;;;;;;5066229;28;20052;-83
2023/05/15 23:56:58;;;;;;;16.15;1.95;;;8.90;99.90;;;;;;5068186;28;20040;-81
2023/05/15 23:59:24;;;;;;;17.15;2.38;;;8.80;99.90;;;;;;5066568;28;20413;-83
